Time;durP1;ratioP1;P1;durP2;ratioP2;P2;SDS_P1;SDS_P2;PMS_P1;PMS_P2;Temp;Humidity;BMP_temperature;BMP_pressure;BME280_temperature;BME280_humidity;BME280_pressure;Samples;Min_cycle;Max_cycle;Signal;HPM_P1;HPM_P2
2022/03/18 00:01:23;;;;;;;22.88;4.10;;;;;;;2.57;100.00;103739.97;10189493;28;20041;-70
2022/03/18 00:06:20;;;;;;;24.17;4.22;;;;;;;2.52;100.00;103742.41;10183936;28;20046;-70
2022/03/18 00:11:16;;;;;;;19.55;3.78;;;;;;;2.49;100.00;103764.41;10189214;28;20133;-69
2022/03/18 00:16:13;;;;;;;23.45;3.45;;;;;;;2.45;100.00;103758.53;10192869;28;20137;-67
2022/03/18 00:21:10;;;;;;;22.90;4.22;;;;;;;2.48;100.00;103762.72;10188386;28;20037;-66
2022/03/18 00:26:07;;;;;;;17.77;2.83;;;;;;;2.42;100.00;103763.47;10186842;28;20160;-66
2022/03/18 00:31:03;;;;;;;14.45;3.10;;;;;;;2.36;100.00;103754.25;10185149;28;20072;-67
2022/03/18 00:36:01;;;;;;;15.30;3.42;;;;;;;2.30;100.00;103763.94;10203236;28;20074;-67
2022/03/18 00:40:57;;;;;;;20.45;3.50;;;;;;;2.23;100.00;103765.72;10186133;28;20500;-68
2022/03/18 00:45:54;;;;;;;18.30;4.10;;;;;;;2.18;100.00;103773.56;10186642;28;20103;-68
2022/03/18 00:56:06;;;;;;;16.40;3.72;;;;;;;2.06;100.00;103775.84;10184076;28;20053;-70
2022/03/18 01:01:02;;;;;;;20.85;4.13;;;;;;;2.00;100.00;103775.78;10188068;28;20557;-69
2022/03/18 01:05:59;;;;;;;20.38;3.75;;;;;;;1.95;100.00;103773.63;10186481;28;20058;-70
2022/03/18 01:10:55;;;;;;;17.98;4.47;;;;;;;1.91;100.00;103779.59;10187511;28;20558;-70
2022/03/18 01:15:52;;;;;;;16.83;4.07;;;;;;;1.82;100.00;103801.25;10186481;28;20141;-69
2022/03/18 01:20:48;;;;;;;16.50;4.03;;;;;;;1.80;100.00;103792.50;10187399;28;20083;-69
2022/03/18 01:25:45;;;;;;;15.65;3.53;;;;;;;1.71;100.00;103798.97;10186365;28;20570;-64
2022/03/18 01:30:42;;;;;;;26.33;6.45;;;;;;;1.71;100.00;103801.69;10186768;28;20041;-64
2022/03/18 01:35:38;;;;;;;23.40;6.07;;;;;;;1.73;100.00;103802.34;10184397;28;20038;-65
2022/03/18 01:40:35;;;;;;;17.92;4.10;;;;;;;1.65;100.00;103802.44;10193257;28;20104;-64
2022/03/18 01:45:31;;;;;;;16.90;4.82;;;;;;;1.64;100.00;103808.84;10193729;28;20073;-65
2022/03/18 01:50:28;;;;;;;22.83;6.20;;;;;;;1.62;100.00;103808.16;10193361;28;20129;-65
2022/03/18 01:55:24;;;;;;;14.63;4.10;;;;;;;1.56;100.00;103812.44;10193053;28;20667;-65
2022/03/18 02:00:21;;;;;;;18.30;4.20;;;;;;;1.51;100.00;103808.59;10191661;28;20045;-65
2022/03/18 02:05:18;;;;;;;21.45;4.55;;;;;;;1.54;100.00;103819.03;10190825;28;20052;-65
2022/03/18 02:10:14;;;;;;;18.77;4.53;;;;;;;1.50;100.00;103833.91;10193259;28;20694;-65
2022/03/18 02:15:11;;;;;;;17.02;5.90;;;;;;;1.49;100.00;103832.25;10192460;28;20108;-64
2022/03/18 02:20:08;;;;;;;19.67;4.53;;;;;;;1.45;100.00;103843.38;10189373;28;20544;-65
2022/03/18 02:25:09;;;;;;;14.52;3.70;;;;;;;1.43;100.00;103848.09;10192541;28;20121;-64
2022/03/18 02:30:07;;;;;;;19.17;4.78;;;;;;;1.40;100.00;103840.38;10191867;28;20053;-64
2022/03/18 02:35:04;;;;;;;19.17;4.65;;;;;;;1.38;100.00;103847.81;10192758;28;20038;-64
2022/03/18 02:40:02;;;;;;;23.00;4.50;;;;;;;1.35;100.00;103853.56;10189738;28;20165;-66
2022/03/18 02:45:00;;;;;;;17.88;4.07;;;;;;;1.32;100.00;103853.91;10189351;28;20539;-64
2022/03/18 02:49:57;;;;;;;15.57;4.38;;;;;;;1.29;100.00;103848.88;10191304;28;20755;-65
2022/03/18 02:54:53;;;;;;;18.20;4.53;;;;;;;1.26;100.00;103860.84;10190892;28;20053;-64
2022/03/18 02:59:50;;;;;;;14.68;3.75;;;;;;;1.26;100.00;103865.41;10185567;28;20124;-64
2022/03/18 03:10:01;;;;;;;20.75;4.55;;;;;;;1.11;100.00;103878.78;10189314;28;20049;-65
2022/03/18 03:14:58;;;;;;;17.48;4.82;;;;;;;1.14;100.00;103882.97;10190617;28;20684;-64
2022/03/18 03:19:56;;;;;;;16.33;4.60;;;;;;;1.11;100.00;103889.56;10190870;28;20089;-64
2022/03/18 03:24:52;;;;;;;15.45;4.32;;;;;;;1.13;100.00;103900.19;10189569;28;20088;-66
2022/03/18 03:29:48;;;;;;;16.83;4.10;;;;;;;1.09;100.00;103896.16;10188537;28;20068;-65
2022/03/18 03:34:45;;;;;;;19.90;4.32;;;;;;;0.96;100.00;103894.88;10188876;28;20061;-66
2022/03/18 03:39:41;;;;;;;19.23;5.35;;;;;;;0.94;100.00;103904.97;10188771;28;20073;-66
2022/03/18 03:44:38;;;;;;;17.73;4.10;;;;;;;0.94;100.00;103910.38;10190054;28;20088;-66
2022/03/18 03:49:34;;;;;;;19.98;4.90;;;;;;;0.91;100.00;103926.91;10188601;28;20420;-65
2022/03/18 03:54:31;;;;;;;11.52;4.00;;;;;;;0.94;100.00;103937.31;10187938;28;20116;-65
2022/03/18 03:59:27;;;;;;;17.33;5.15;;;;;;;0.96;100.00;103935.28;10187258;28;20050;-65
2022/03/18 04:04:25;;;;;;;17.42;5.10;;;;;;;0.94;100.00;103948.09;10187661;28;20125;-66
2022/03/18 04:09:21;;;;;;;23.15;6.05;;;;;;;0.94;100.00;103950.78;10188100;28;20215;-65
2022/03/18 04:14:18;;;;;;;16.60;4.80;;;;;;;0.96;100.00;103956.84;10188321;28;20042;-66
2022/03/18 04:19:14;;;;;;;12.93;4.18;;;;;;;0.90;100.00;103962.91;10188180;28;20423;-66
2022/03/18 04:24:11;;;;;;;19.30;4.97;;;;;;;0.91;100.00;103974.56;10188330;28;20531;-66
2022/03/18 04:29:12;;;;;;;18.48;5.88;;;;;;;0.93;100.00;103967.13;10187742;28;20555;-65
2022/03/18 04:34:09;;;;;;;17.23;4.97;;;;;;;0.88;100.00;103975.72;10186757;28;20045;-65
2022/03/18 04:39:05;;;;;;;16.75;5.15;;;;;;;0.89;100.00;103977.41;10187271;28;20050;-66
2022/03/18 04:44:03;;;;;;;15.52;5.22;;;;;;;0.86;100.00;103982.28;10187233;28;20065;-65
2022/03/18 04:48:59;;;;;;;17.50;4.60;;;;;;;0.80;100.00;103995.44;10187296;28;20081;-65
2022/03/18 04:53:57;;;;;;;17.15;5.35;;;;;;;0.77;100.00;103992.28;10187611;28;20121;-65
2022/03/18 04:58:53;;;;;;;11.07;4.95;;;;;;;0.77;100.00;104000.34;10186149;28;20124;-66
2022/03/18 05:03:50;;;;;;;18.00;5.97;;;;;;;0.75;100.00;104007.75;10185331;28;20080;-65
2022/03/18 05:08:46;;;;;;;20.00;5.65;;;;;;;0.74;100.00;104017.69;10182548;28;20073;-65
2022/03/18 05:13:44;;;;;;;17.25;6.40;;;;;;;0.73;100.00;104023.25;10187419;28;20073;-65
2022/03/18 05:18:41;;;;;;;14.63;5.30;;;;;;;0.73;100.00;104036.72;10188925;28;20057;-65
2022/03/18 05:23:37;;;;;;;18.80;5.55;;;;;;;0.73;100.00;104047.50;10189449;28;20050;-66
2022/03/18 05:28:34;;;;;;;13.02;5.13;;;;;;;0.78;100.00;104061.28;10192407;28;20058;-65
2022/03/18 05:33:30;;;;;;;23.33;6.63;;;;;;;0.77;100.00;104073.91;10196315;28;20100;-63
2022/03/18 05:38:27;;;;;;;15.75;5.10;;;;;;;0.76;100.00;104074.06;10197308;28;20045;-65
2022/03/18 05:43:24;;;;;;;17.88;5.00;;;;;;;0.85;100.00;104086.53;10200869;28;20053;-63
2022/03/18 05:48:21;;;;;;;18.83;5.70;;;;;;;0.96;100.00;104091.56;10194164;28;20041;-63
2022/03/18 05:53:18;;;;;;;13.65;5.40;;;;;;;1.03;100.00;104087.19;10195349;28;20077;-64
2022/03/18 05:58:14;;;;;;;21.30;5.80;;;;;;;1.16;100.00;104104.66;10191172;28;20129;-64
2022/03/18 06:03:14;;;;;;;15.57;6.22;;;;;;;1.36;100.00;104097.88;10189073;28;20133;-64
2022/03/18 06:13:26;;;;;;;15.55;5.80;;;;;;;1.82;100.00;104114.25;10186810;28;20046;-61
2022/03/18 06:18:23;;;;;;;15.40;5.57;;;;;;;2.09;100.00;104114.78;10187776;28;20085;-61
2022/03/18 06:23:20;;;;;;;12.10;5.30;;;;;;;2.16;100.00;104118.47;10181555;28;20073;-63
2022/03/18 06:28:16;;;;;;;24.83;6.68;;;;;;;2.35;100.00;104121.72;10187032;28;20049;-63
2022/03/18 06:33:12;;;;;;;19.55;6.00;;;;;;;2.50;100.00;104133.41;10181031;28;20069;-63
2022/03/18 06:38:09;;;;;;;18.95;5.68;;;;;;;2.67;100.00;104140.41;10187060;28;20555;-63
2022/03/18 06:43:06;;;;;;;23.25;7.22;;;;;;;2.73;100.00;104134.25;10184655;28;20082;-63
2022/03/18 06:48:02;;;;;;;13.90;5.47;;;;;;;2.84;100.00;104140.25;10185681;28;20065;-63
2022/03/18 06:52:59;;;;;;;15.98;5.82;;;;;;;2.90;100.00;104144.91;10186198;28;20073;-63
2022/03/18 06:57:55;;;;;;;20.08;7.57;;;;;;;2.98;100.00;104152.97;10185759;28;20125;-63
2022/03/18 07:02:52;;;;;;;18.42;6.05;;;;;;;3.06;100.00;104154.75;10190789;28;20077;-63
2022/03/18 07:07:48;;;;;;;15.48;5.65;;;;;;;3.13;100.00;104151.16;10206177;28;20050;-63
2022/03/18 07:12:45;;;;;;;19.45;6.22;;;;;;;3.23;100.00;104160.88;10186473;28;20049;-64
2022/03/18 07:18:00;;;;;;;21.55;6.55;;;;;;;3.31;100.00;104174.28;10186718;28;20050;-63
2022/03/18 07:23:12;;;;;;;19.05;6.07;;;;;;;3.45;100.00;104176.16;10185629;28;20124;-64
2022/03/18 07:28:12;;;;;;;19.20;6.60;;;;;;;3.58;100.00;104181.78;10183206;28;20137;-64
2022/03/18 07:33:09;;;;;;;21.23;6.95;;;;;;;3.63;100.00;104183.94;10183745;28;20085;-63
2022/03/18 07:38:09;;;;;;;21.17;6.40;;;;;;;3.71;100.00;104196.53;10183148;28;20702;-64
2022/03/18 07:43:07;;;;;;;14.68;6.07;;;;;;;3.87;100.00;104199.03;10183706;28;20749;-64
2022/03/18 07:48:07;;;;;;;16.30;6.68;;;;;;;4.11;100.00;104197.09;10185791;28;20042;-63
2022/03/18 07:53:06;;;;;;;21.98;6.78;;;;;;;4.27;100.00;104191.47;10189754;28;20526;-63
2022/03/18 07:58:03;;;;;;;24.65;7.13;;;;;;;4.33;100.00;104195.25;10190340;28;20046;-64
2022/03/18 08:02:59;;;;;;;16.75;6.75;;;;;;;4.43;100.00;104190.38;10179375;28;20137;-64
2022/03/18 08:07:57;;;;;;;20.00;6.93;;;;;;;4.45;100.00;104192.91;10171330;28;20150;-65
2022/03/18 08:12:54;;;;;;;20.00;6.13;;;;;;;4.42;100.00;104216.63;10174736;28;20134;-65
2022/03/18 08:17:52;;;;;;;22.85;8.80;;;;;;;4.30;100.00;104223.56;10176418;28;20138;-67
2022/03/18 08:22:50;;;;;;;31.60;8.55;;;;;;;4.50;100.00;104250.06;10176369;28;20099;-68
2022/03/18 08:27:48;;;;;;;19.27;7.80;;;;;;;4.74;100.00;104246.19;10177457;28;20152;-66
2022/03/18 08:32:46;;;;;;;22.75;7.97;;;;;;;4.92;100.00;104259.28;10182665;28;20129;-67
2022/03/18 08:37:57;;;;;;;21.30;7.65;;;;;;;4.87;100.00;104278.00;10183528;28;20068;-67
2022/03/18 08:42:56;;;;;;;23.52;8.30;;;;;;;5.02;100.00;104281.53;10187011;28;20552;-68
2022/03/18 08:47:56;;;;;;;22.88;7.38;;;;;;;5.10;100.00;104289.50;10186241;28;20069;-67
2022/03/18 08:52:54;;;;;;;20.58;7.90;;;;;;;5.35;100.00;104286.41;10187605;28;20077;-65
2022/03/18 08:57:52;;;;;;;18.95;6.47;;;;;;;5.55;100.00;104287.44;10187676;28;20408;-66
2022/03/18 09:02:48;;;;;;;23.85;6.45;;;;;;;5.83;100.00;104283.88;10185878;28;20046;-67
2022/03/18 09:07:46;;;;;;;17.70;7.10;;;;;;;6.08;100.00;104276.97;10183091;28;20057;-68
2022/03/18 09:12:50;;;;;;;16.33;6.38;;;;;;;6.35;100.00;104293.41;10179181;28;20488;-69
2022/03/18 09:17:46;;;;;;;16.00;5.55;;;;;;;6.64;100.00;104299.59;10177109;28;20046;-67
2022/03/18 09:22:43;;;;;;;16.70;6.80;;;;;;;6.79;100.00;104311.16;10178659;28;20046;-68
2022/03/18 09:27:40;;;;;;;19.58;6.15;;;;;;;6.98;100.00;104316.84;10180135;28;20851;-68
2022/03/18 09:32:42;;;;;;;14.73;5.70;;;;;;;7.26;100.00;104312.09;10177673;28;20068;-68
2022/03/18 09:37:39;;;;;;;19.00;5.95;;;;;;;7.46;100.00;104333.06;10183605;28;20053;-68
2022/03/18 09:43:03;;;;;;;24.65;6.63;;;;;;;7.70;100.00;104335.16;10178919;28;20121;-68
2022/03/18 09:48:01;;;;;;;21.83;5.90;;;;;;;7.83;100.00;104333.50;10185714;28;20084;-68
2022/03/18 09:52:58;;;;;;;18.75;6.15;;;;;;;8.06;100.00;104350.22;10183258;28;20156;-67
2022/03/18 09:57:54;;;;;;;18.45;5.95;;;;;;;8.20;100.00;104351.88;10185642;28;20479;-67
2022/03/18 10:03:10;;;;;;;18.23;6.32;;;;;;;8.39;100.00;104338.41;10190813;28;20078;-68
2022/03/18 10:08:08;;;;;;;14.90;5.47;;;;;;;8.56;100.00;104339.66;10186449;28;20053;-66
2022/03/18 10:13:06;;;;;;;17.88;5.40;;;;;;;8.89;100.00;104344.13;10191508;28;20049;-66
2022/03/18 10:18:03;;;;;;;13.73;5.75;;;;;;;9.34;100.00;104341.31;10189388;28;20626;-66
2022/03/18 10:23:09;;;;;;;15.05;6.10;;;;;;;9.79;100.00;104346.63;10188077;28;20104;-67
2022/03/18 10:28:08;;;;;;;23.15;6.18;;;;;;;10.15;100.00;104342.28;10181327;28;20108;-67
2022/03/18 10:33:06;;;;;;;18.88;6.63;;;;;;;10.52;100.00;104353.28;10186503;28;20511;-67
2022/03/18 10:38:04;;;;;;;18.45;5.60;;;;;;;10.71;100.00;104346.72;10182672;28;20406;-66
2022/03/18 10:43:03;;;;;;;21.15;6.00;;;;;;;10.82;100.00;104352.50;10186034;28;20041;-69
2022/03/18 10:48:29;;;;;;;15.93;5.28;;;;;;;11.26;100.00;104347.66;10191900;28;20049;-69
2022/03/18 10:53:30;;;;;;;12.63;5.05;;;;;;;11.19;100.00;104345.03;10194867;28;20142;-69
2022/03/18 10:58:32;;;;;;;17.08;6.03;;;;;;;11.33;100.00;104329.22;10190438;28;20571;-68
2022/03/18 11:03:31;;;;;;;24.48;6.50;;;;;;;11.67;100.00;104337.72;10189852;28;20077;-67
2022/03/18 11:08:35;;;;;;;20.00;5.72;;;;;;;12.07;100.00;104337.03;10178645;28;20046;-68
2022/03/18 11:13:36;;;;;;;16.63;5.25;;;;;;;12.34;100.00;104343.69;10179768;28;20049;-68
2022/03/18 11:18:34;;;;;;;12.55;4.72;;;;;;;12.82;100.00;104345.22;10179294;28;20438;-68
2022/03/18 11:23:32;;;;;;;21.77;5.93;;;;;;;12.75;100.00;104339.03;10178848;28;20138;-68
2022/03/18 11:28:29;;;;;;;14.95;4.35;;;;;;;12.95;100.00;104348.75;10175879;28;20148;-69
2022/03/18 11:33:26;;;;;;;15.75;4.80;;;;;;;13.30;100.00;104345.03;10174735;28;20124;-68
2022/03/18 11:38:31;;;;;;;16.58;4.97;;;;;;;13.86;100.00;104352.28;10172417;28;20104;-68
2022/03/18 11:43:35;;;;;;;14.90;4.97;;;;;;;14.25;100.00;104341.28;10180902;28;20123;-68
2022/03/18 11:48:35;;;;;;;19.10;4.78;;;;;;;14.53;100.00;104345.78;10189678;28;20108;-68
2022/03/18 11:53:47;;;;;;;12.18;4.10;;;;;;;14.73;94.09;104336.13;10188089;28;20046;-68
2022/03/18 11:58:43;;;;;;;10.73;3.17;;;;;;;15.06;86.41;104346.13;10180228;28;20073;-68
2022/03/18 12:03:41;;;;;;;11.82;2.92;;;;;;;15.58;82.66;104347.41;10182206;28;20817;-68
2022/03/18 12:08:53;;;;;;;11.57;3.70;;;;;;;16.31;86.22;104360.59;10180592;28;20219;-68
2022/03/18 12:13:49;;;;;;;11.68;3.25;;;;;;;16.57;74.51;104353.25;10180745;28;20038;-67
2022/03/18 12:18:46;;;;;;;10.18;3.10;;;;;;;16.86;66.72;104355.59;10182675;28;20107;-68
2022/03/18 12:23:43;;;;;;;13.98;3.40;;;;;;;16.98;64.19;104351.47;10184112;28;20085;-68
2022/03/18 12:28:45;;;;;;;10.52;2.33;;;;;;;17.85;62.21;104351.53;10183848;28;20145;-67
2022/03/18 12:33:42;;;;;;;10.30;2.45;;;;;;;18.47;63.54;104334.69;10186861;28;20041;-68
2022/03/18 12:38:38;;;;;;;9.55;2.30;;;;;;;18.20;54.89;104343.41;10181014;28;20156;-67
2022/03/18 12:43:35;;;;;;;9.55;2.00;;;;;;;17.94;50.25;104339.88;10180231;28;20492;-68
2022/03/18 12:48:32;;;;;;;9.43;3.10;;;;;;;18.70;49.72;104327.66;10183428;28;20268;-66
2022/03/18 12:53:33;;;;;;;9.90;2.72;;;;;;;18.91;51.04;104328.38;10183262;28;20074;-68
2022/03/18 12:58:37;;;;;;;9.80;2.70;;;;;;;19.69;48.51;104326.66;10174243;28;20955;-69
2022/03/18 13:03:55;;;;;;;10.85;3.13;;;;;;;18.90;47.28;104340.59;10171522;28;20042;-68
2022/03/18 13:09:00;;;;;;;13.13;4.10;;;;;;;18.28;50.64;104349.19;10172665;28;20045;-67
2022/03/18 13:13:57;;;;;;;12.15;3.95;;;;;;;18.85;49.47;104346.19;10176670;28;20042;-68
2022/03/18 13:18:58;;;;;;;13.48;3.15;;;;;;;18.09;50.68;104356.44;10179172;28;20053;-68
2022/03/18 13:23:55;;;;;;;12.25;3.92;;;;;;;17.50;54.73;104343.22;10184036;28;20127;-68
2022/03/18 13:28:52;;;;;;;10.50;4.80;;;;;;;18.07;52.89;104356.72;10185028;28;20069;-66
2022/03/18 13:33:52;;;;;;;13.77;4.65;;;;;;;16.87;56.40;104352.53;10185186;28;20034;-65
2022/03/18 13:38:51;;;;;;;14.05;3.92;;;;;;;16.12;63.32;104352.78;10188393;28;20123;-65
2022/03/18 13:43:58;;;;;;;10.77;3.78;;;;;;;15.59;70.62;104343.56;10185469;28;20092;-66
2022/03/18 13:49:15;;;;;;;7.78;3.10;;;;;;;15.57;70.09;104334.72;10187010;28;20046;-66
2022/03/18 13:54:14;;;;;;;10.15;2.42;;;;;;;16.47;68.12;104334.72;10187419;28;20042;-64
2022/03/18 13:59:14;;;;;;;7.60;2.38;;;;;;;17.60;62.75;104343.22;10184373;28;20139;-64
2022/03/18 14:04:10;;;;;;;10.27;2.80;;;;;;;19.17;63.83;104342.06;10185507;28;20081;-64
2022/03/18 14:09:13;;;;;;;11.15;2.50;;;;;;;19.95;54.42;104344.69;10193689;28;20100;-65
2022/03/18 14:14:20;;;;;;;10.60;2.40;;;;;;;20.23;48.98;104347.72;10185249;28;20092;-66
2022/03/18 14:19:44;;;;;;;10.98;3.70;;;;;;;19.06;47.94;104341.34;10189461;28;20096;-68
2022/03/18 14:24:41;;;;;;;10.48;2.35;;;;;;;18.07;56.21;104336.50;10190082;28;20041;-66
2022/03/18 14:29:43;;;;;;;12.30;3.13;;;;;;;17.60;58.53;104332.16;10186230;28;20069;-64
2022/03/18 14:34:39;;;;;;;11.73;3.05;;;;;;;18.35;57.72;104325.91;10182619;28;20731;-65
2022/03/18 14:39:35;;;;;;;8.25;3.20;;;;;;;18.28;62.39;104320.66;10187061;28;20725;-65
2022/03/18 14:44:33;;;;;;;8.25;2.10;;;;;;;19.01;69.67;104317.22;10184617;28;20133;-66
2022/03/18 14:49:29;;;;;;;9.07;1.92;;;;;;;20.08;61.79;104311.81;10182257;28;20064;-66
2022/03/18 14:59:43;;;;;;;8.25;2.10;;;;;;;20.56;66.66;104323.72;10180748;28;20041;-65
2022/03/18 15:04:40;;;;;;;11.35;2.95;;;;;;;20.16;50.00;104325.03;10184711;28;20470;-65
2022/03/18 15:09:36;;;;;;;9.60;2.47;;;;;;;20.27;46.93;104320.19;10181711;28;20065;-68
2022/03/18 15:14:33;;;;;;;13.35;3.05;;;;;;;19.72;50.68;104320.53;10182674;28;20038;-66
2022/03/18 15:19:29;;;;;;;12.50;3.50;;;;;;;19.14;48.21;104319.34;10177806;28;20143;-65
2022/03/18 15:24:26;;;;;;;15.35;3.72;;;;;;;18.72;50.48;104326.25;10184779;28;20034;-65
2022/03/18 15:29:23;;;;;;;12.18;3.33;;;;;;;18.07;52.71;104325.44;10182600;28;20046;-65
2022/03/18 15:34:20;;;;;;;8.35;2.90;;;;;;;17.87;54.95;104341.00;10179757;28;20099;-65
2022/03/18 15:39:17;;;;;;;13.13;3.85;;;;;;;17.18;59.88;104341.56;10173314;28;20583;-65
2022/03/18 15:44:14;;;;;;;8.93;2.75;;;;;;;16.73;61.75;104345.84;10176889;28;20491;-65
2022/03/18 15:49:11;;;;;;;13.43;3.92;;;;;;;16.15;62.75;104346.75;10175479;28;20069;-64
2022/03/18 15:54:09;;;;;;;11.32;2.95;;;;;;;15.91;62.68;104349.06;10175551;28;20045;-64
2022/03/18 15:59:08;;;;;;;10.23;3.35;;;;;;;15.71;68.42;104352.53;10175824;28;20069;-64
2022/03/18 16:04:05;;;;;;;8.70;2.80;;;;;;;16.84;65.40;104353.09;10189063;28;20121;-64
2022/03/18 16:09:02;;;;;;;11.65;2.33;;;;;;;17.28;60.63;104358.16;10187275;28;20046;-64
2022/03/18 16:13:59;;;;;;;11.43;2.65;;;;;;;16.72;56.52;104355.25;10170130;28;20460;-64
2022/03/18 16:18:55;;;;;;;12.07;2.70;;;;;;;16.34;59.28;104362.84;10180885;28;20046;-64
2022/03/18 16:23:53;;;;;;;10.30;2.38;;;;;;;16.29;60.79;104357.28;10181177;28;20042;-64
2022/03/18 16:28:50;;;;;;;10.23;2.40;;;;;;;16.83;59.12;104356.97;10180692;28;20038;-64
2022/03/18 16:33:49;;;;;;;7.80;2.10;;;;;;;16.65;63.11;104368.50;10181330;28;20088;-64
2022/03/18 16:38:46;;;;;;;8.57;2.08;;;;;;;16.41;66.73;104371.72;10179537;28;20077;-64
2022/03/18 16:43:42;;;;;;;8.40;2.05;;;;;;;15.97;64.20;104374.78;10189161;28;20788;-64
2022/03/18 16:53:56;;;;;;;8.63;2.13;;;;;;;15.19;71.14;104386.22;10181362;28;20133;-66
2022/03/18 16:58:56;;;;;;;8.95;2.10;;;;;;;15.12;71.16;104399.38;10176461;28;20648;-66
2022/03/18 17:03:57;;;;;;;10.70;2.28;;;;;;;14.87;79.39;104408.19;10173139;28;20069;-66
2022/03/18 17:08:53;;;;;;;12.50;2.30;;;;;;;14.78;100.00;104416.06;10192453;28;20508;-66
2022/03/18 17:13:50;;;;;;;9.05;2.10;;;;;;;14.62;100.00;104411.44;10190789;28;20077;-66
2022/03/18 17:18:48;;;;;;;11.93;2.38;;;;;;;14.40;100.00;104419.66;10196059;28;20132;-66
2022/03/18 17:23:44;;;;;;;10.70;2.25;;;;;;;14.17;100.00;104426.22;10195504;28;20100;-66
2022/03/18 17:28:41;;;;;;;7.45;2.40;;;;;;;14.01;100.00;104439.72;10195891;28;20092;-66
2022/03/18 17:33:37;;;;;;;9.85;2.60;;;;;;;13.70;96.47;104454.88;10186132;28;20060;-66
2022/03/18 17:38:34;;;;;;;18.33;3.97;;;;;;;13.41;100.00;104474.19;10186138;28;20133;-66
2022/03/18 17:43:31;;;;;;;15.73;3.75;;;;;;;13.28;100.00;104479.13;10187658;28;20741;-66
2022/03/18 17:48:29;;;;;;;13.93;3.70;;;;;;;13.11;100.00;104468.88;10186562;28;20081;-63
2022/03/18 17:53:25;;;;;;;13.32;3.67;;;;;;;12.79;100.00;104494.03;10189806;28;20133;-64
2022/03/18 17:58:22;;;;;;;13.30;2.60;;;;;;;12.88;100.00;104501.88;10188366;28;20073;-66
2022/03/18 18:03:18;;;;;;;13.05;3.00;;;;;;;12.63;100.00;104511.22;10186666;28;20062;-70
2022/03/18 18:08:19;;;;;;;19.65;3.70;;;;;;;12.28;100.00;104514.78;10188062;28;20749;-70
2022/03/18 18:13:16;;;;;;;18.25;4.05;;;;;;;12.26;100.00;104521.59;10191570;28;20483;-70
2022/03/18 18:18:14;;;;;;;17.90;4.00;;;;;;;12.13;100.00;104534.44;10190299;28;20073;-69
2022/03/18 18:23:10;;;;;;;15.93;3.20;;;;;;;11.97;100.00;104541.44;10192953;28;20066;-69
2022/03/18 18:28:07;;;;;;;15.70;4.15;;;;;;;11.65;100.00;104537.22;10192545;28;20050;-69
2022/03/18 18:33:03;;;;;;;17.38;3.63;;;;;;;11.77;100.00;104543.63;10188570;28;20049;-69
2022/03/18 18:38:03;;;;;;;17.65;3.78;;;;;;;11.47;100.00;104547.16;10187025;28;20054;-69
2022/03/18 18:43:04;;;;;;;21.15;4.57;;;;;;;11.44;100.00;104552.25;10184059;28;20559;-68
2022/03/18 18:48:01;;;;;;;17.35;3.67;;;;;;;11.34;100.00;104558.28;10187255;28;20046;-69
2022/03/18 18:52:58;;;;;;;14.27;3.67;;;;;;;11.18;100.00;104558.91;10185899;28;20168;-69
2022/03/18 18:57:55;;;;;;;13.10;4.13;;;;;;;11.11;100.00;104564.44;10186199;28;20576;-69
2022/03/18 19:02:51;;;;;;;18.13;5.60;;;;;;;10.94;100.00;104580.66;10190044;28;20046;-69
2022/03/18 19:07:50;;;;;;;24.40;4.80;;;;;;;10.86;100.00;104583.66;10186142;28;20075;-69
2022/03/18 19:12:47;;;;;;;20.55;4.53;;;;;;;10.74;100.00;104581.69;10186925;28;20049;-69
2022/03/18 19:17:43;;;;;;;20.13;4.85;;;;;;;10.65;100.00;104591.25;10185486;28;20058;-69
2022/03/18 19:22:41;;;;;;;17.73;4.38;;;;;;;10.49;100.00;104594.53;10185976;28;20053;-70
2022/03/18 19:27:37;;;;;;;18.48;5.43;;;;;;;10.49;100.00;104594.53;10185983;28;20173;-69
2022/03/18 19:32:38;;;;;;;13.98;4.45;;;;;;;10.34;100.00;104596.75;10183557;28;20871;-69
2022/03/18 19:37:36;;;;;;;21.02;5.50;;;;;;;10.23;100.00;104603.72;10186391;28;20141;-69
2022/03/18 19:42:32;;;;;;;19.13;4.55;;;;;;;10.12;100.00;104608.00;10183449;28;20132;-69
2022/03/18 19:47:32;;;;;;;23.15;5.22;;;;;;;10.03;100.00;104617.53;10185086;28;20463;-69
2022/03/18 19:52:28;;;;;;;16.27;4.28;;;;;;;9.82;100.00;104627.72;10183990;28;20388;-69
2022/03/18 20:02:40;;;;;;;16.45;5.00;;;;;;;9.59;100.00;104632.88;10182664;28;20104;-70
2022/03/18 20:07:37;;;;;;;19.75;5.80;;;;;;;9.46;100.00;104650.97;10186705;28;20677;-69
2022/03/18 20:12:38;;;;;;;23.10;5.85;;;;;;;9.36;100.00;104649.75;10186370;28;20050;-69
2022/03/18 20:17:35;;;;;;;25.73;6.38;;;;;;;9.33;100.00;104655.59;10187533;28;20100;-70
2022/03/18 20:22:31;;;;;;;22.95;5.95;;;;;;;9.23;100.00;104647.84;10188821;28;20084;-69
2022/03/18 20:27:32;;;;;;;18.42;5.63;;;;;;;9.15;100.00;104650.81;10182840;28;20152;-69
2022/03/18 20:32:28;;;;;;;21.80;6.20;;;;;;;8.98;100.00;104659.44;10177653;28;20121;-69
2022/03/18 20:37:25;;;;;;;23.08;6.50;;;;;;;8.90;100.00;104662.38;10184722;28;20136;-69
2022/03/18 20:42:21;;;;;;;17.88;7.38;;;;;;;8.80;100.00;104662.81;10185775;28;20133;-69
2022/03/18 20:47:18;;;;;;;22.73;6.80;;;;;;;8.63;100.00;104662.38;10187269;28;20129;-69
2022/03/18 20:52:15;;;;;;;23.30;7.28;;;;;;;8.53;100.00;104664.66;10181432;28;20717;-70
2022/03/18 20:57:11;;;;;;;23.38;6.47;;;;;;;8.40;100.00;104661.91;10182647;28;20144;-69
2022/03/18 21:02:09;;;;;;;22.00;7.45;;;;;;;8.34;100.00;104666.28;10185034;28;20092;-69
2022/03/18 21:07:06;;;;;;;21.77;7.68;;;;;;;8.13;100.00;104672.72;10181585;28;20054;-69
2022/03/18 21:12:03;;;;;;;23.58;7.53;;;;;;;7.99;100.00;104671.00;10184309;28;20077;-68
2022/03/18 21:22:16;;;;;;;18.75;7.68;;;;;;;7.84;100.00;104678.47;10183515;28;20078;-69
2022/03/18 21:32:29;;;;;;;32.78;8.50;;;;;;;7.63;100.00;104688.41;10182240;28;20112;-68
2022/03/18 21:37:45;;;;;;;21.98;8.90;;;;;;;7.55;100.00;104685.84;10178738;28;20488;-69
2022/03/18 21:42:42;;;;;;;22.95;9.27;;;;;;;7.47;100.00;104686.88;10186504;28;20050;-68
2022/03/18 21:47:42;;;;;;;23.77;9.93;;;;;;;7.38;100.00;104691.63;10187101;28;20141;-68
2022/03/18 21:52:39;;;;;;;28.73;9.88;;;;;;;7.27;100.00;104689.44;10189544;28;20925;-68
2022/03/18 21:57:36;;;;;;;30.13;9.82;;;;;;;7.16;100.00;104698.16;10193319;28;20049;-68
2022/03/18 22:02:33;;;;;;;25.65;10.10;;;;;;;7.15;100.00;104693.75;10195305;28;20100;-68
2022/03/18 22:07:32;;;;;;;25.98;10.02;;;;;;;7.04;100.00;104694.28;10193555;28;20049;-68
2022/03/18 22:12:28;;;;;;;35.90;11.30;;;;;;;6.95;100.00;104694.41;10195119;28;20500;-68
2022/03/18 22:17:24;;;;;;;24.27;10.85;;;;;;;6.93;100.00;104693.75;10189631;28;20136;-68
2022/03/18 22:22:21;;;;;;;29.65;12.10;;;;;;;6.84;100.00;104700.38;10190932;28;20145;-70
2022/03/18 22:27:18;;;;;;;27.75;12.10;;;;;;;6.89;100.00;104697.94;10192037;28;20205;-69
2022/03/18 22:32:15;;;;;;;23.63;10.50;;;;;;;6.91;100.00;104690.38;10193390;28;20080;-64
2022/03/18 22:37:19;;;;;;;22.33;10.00;;;;;;;6.92;100.00;104694.81;10185090;28;20069;-70
2022/03/18 22:42:21;;;;;;;24.55;10.73;;;;;;;6.81;100.00;104695.34;10176531;28;20045;-68
2022/03/18 22:47:18;;;;;;;33.65;11.55;;;;;;;6.71;100.00;104694.84;10184033;28;20084;-69
2022/03/18 22:52:15;;;;;;;23.35;9.70;;;;;;;6.55;100.00;104700.53;10191104;28;20070;-66
2022/03/18 22:57:11;;;;;;;25.90;10.50;;;;;;;6.48;100.00;104695.84;10191902;28;20550;-67
2022/03/18 23:02:08;;;;;;;19.13;9.25;;;;;;;6.43;100.00;104687.44;10193583;28;20705;-67
2022/03/18 23:07:05;;;;;;;25.17;10.98;;;;;;;6.34;100.00;104682.31;10190928;28;20447;-66
2022/03/18 23:12:11;;;;;;;15.38;7.75;;;;;;;6.23;100.00;104681.75;10193213;28;20042;-67
2022/03/18 23:17:09;;;;;;;19.52;7.47;;;;;;;6.15;100.00;104684.59;10189544;28;20141;-68